Time;durP1;ratioP1;P1;durP2;ratioP2;P2;SDS_P1;SDS_P2;PMS_P1;PMS_P2;Temp;Humidity;BMP_temperature;BMP_pressure;BME280_temperature;BME280_humidity;BME280_pressure;Samples;Min_cycle;Max_cycle;Signal;HPM_P1;HPM_P2
2023/05/04 00:00:15;;;;;;;4.93;2.50;;;;;;;;;;505902;28;1058;-74
2023/05/04 00:00:31;;;;;;;5.18;2.47;;;;;;;;;;506113;28;1204;-75
2023/05/04 00:00:46;;;;;;;7.63;2.50;;;;;;;;;;505821;28;1263;-75
2023/05/04 00:01:01;;;;;;;7.20;2.50;;;;;;;;;;505427;28;1466;-75
2023/05/04 00:01:17;;;;;;;3.75;2.40;;;;;;;;;;505954;28;1144;-75
2023/05/04 00:01:32;;;;;;;4.27;2.57;;;;;;;;;;508063;28;1231;-76
2023/05/04 00:01:47;;;;;;;4.05;2.45;;;;;;;;;;505203;28;1461;-76
2023/05/04 00:02:03;;;;;;;4.50;2.30;;;;;;;;;;506955;28;1234;-75
2023/05/04 00:02:21;;;;;;;5.27;2.50;;;;;;;;;;508115;28;1093;-76
2023/05/04 00:02:36;;;;;;;5.18;2.60;;;;;;;;;;509784;28;1132;-75
2023/05/04 00:02:51;;;;;;;4.80;2.50;;;;;;;;;;510633;28;959;-75
2023/05/04 00:03:06;;;;;;;3.63;2.50;;;;;;;;;;509805;28;1319;-75
2023/05/04 00:03:21;;;;;;;4.28;2.50;;;;;;;;;;508415;28;1289;-75
2023/05/04 00:03:37;;;;;;;4.63;2.40;;;;;;;;;;509164;28;1194;-75
2023/05/04 00:03:53;;;;;;;4.30;2.50;;;;;;;;;;507628;28;1280;-75
2023/05/04 00:04:08;;;;;;;5.50;2.53;;;;;;;;;;510424;28;958;-75
2023/05/04 00:04:23;;;;;;;4.68;2.40;;;;;;;;;;508281;28;1153;-76
2023/05/04 00:04:41;;;;;;;4.47;2.40;;;;;;;;;;507691;28;1275;-75
2023/05/04 00:04:56;;;;;;;4.43;2.45;;;;;;;;;;508792;28;1088;-75
2023/05/04 00:05:11;;;;;;;4.00;2.40;;;;;;;;;;507221;28;1110;-75
2023/05/04 00:05:26;;;;;;;4.30;2.47;;;;;;;;;;506769;28;1289;-75
2023/05/04 00:05:42;;;;;;;3.47;2.47;;;;;;;;;;508772;28;1277;-75
2023/05/04 00:05:57;;;;;;;2.90;2.50;;;;;;;;;;508999;28;1287;-74
2023/05/04 00:06:12;;;;;;;3.67;2.47;;;;;;;;;;509940;28;1132;-75
2023/05/04 00:06:27;;;;;;;4.70;2.30;;;;;;;;;;509897;28;1089;-75
2023/05/04 00:06:43;;;;;;;5.27;2.40;;;;;;;;;;510154;28;1151;-78
2023/05/04 00:06:58;;;;;;;4.90;2.50;;;;;;;;;;509679;28;1161;-74
2023/05/04 00:07:13;;;;;;;4.07;2.30;;;;;;;;;;509405;28;1005;-75
2023/05/04 00:07:28;;;;;;;3.60;2.13;;;;;;;;;;510165;28;1235;-75
2023/05/04 00:07:43;;;;;;;4.37;2.30;;;;;;;;;;511098;28;949;-75
2023/05/04 00:07:59;;;;;;;5.23;2.50;;;;;;;;;;513459;27;1195;-74
2023/05/04 00:08:14;;;;;;;4.93;2.40;;;;;;;;;;512066;28;1645;-74
2023/05/04 00:08:30;;;;;;;4.25;2.33;;;;;;;;;;513292;27;1253;-75
2023/05/04 00:08:45;;;;;;;4.10;2.33;;;;;;;;;;512095;28;1330;-75
2023/05/04 00:09:00;;;;;;;4.30;2.40;;;;;;;;;;511269;28;1326;-75
2023/05/04 00:09:18;;;;;;;3.80;2.40;;;;;;;;;;512315;28;1265;-74
2023/05/04 00:09:33;;;;;;;4.60;2.45;;;;;;;;;;511060;28;1014;-75
2023/05/04 00:09:49;;;;;;;5.30;2.50;;;;;;;;;;510873;28;1252;-75
2023/05/04 00:10:04;;;;;;;4.43;2.50;;;;;;;;;;509802;28;1304;-75
2023/05/04 00:10:20;;;;;;;4.72;2.53;;;;;;;;;;510292;28;1468;-75
2023/05/04 00:10:35;;;;;;;5.35;2.70;;;;;;;;;;510363;28;1147;-75
2023/05/04 00:10:53;;;;;;;4.30;2.50;;;;;;;;;;511568;28;1167;-76
2023/05/04 00:11:08;;;;;;;3.35;2.30;;;;;;;;;;508818;28;1239;-74
2023/05/04 00:11:26;;;;;;;3.60;2.40;;;;;;;;;;507539;28;1406;-75
2023/05/04 00:11:41;;;;;;;3.85;2.42;;;;;;;;;;508581;28;1376;-74
2023/05/04 00:11:56;;;;;;;3.95;2.58;;;;;;;;;;508774;28;1270;-75
2023/05/04 00:12:11;;;;;;;3.80;2.47;;;;;;;;;;508995;28;1227;-74
2023/05/04 00:12:27;;;;;;;3.53;2.30;;;;;;;;;;507532;28;1551;-75
2023/05/04 00:12:45;;;;;;;3.55;2.30;;;;;;;;;;508526;28;928;-76
2023/05/04 00:13:00;;;;;;;3.03;2.30;;;;;;;;;;508067;28;1294;-75
2023/05/04 00:13:15;;;;;;;2.80;2.25;;;;;;;;;;509007;28;1977;-76
2023/05/04 00:13:30;;;;;;;4.37;2.40;;;;;;;;;;507111;28;1601;-75
2023/05/04 00:13:45;;;;;;;4.57;2.50;;;;;;;;;;508464;28;1330;-76
2023/05/04 00:14:01;;;;;;;4.23;2.50;;;;;;;;;;509200;28;1338;-76
2023/05/04 00:14:16;;;;;;;4.30;2.60;;;;;;;;;;510039;28;1203;-75
2023/05/04 00:14:31;;;;;;;3.58;2.53;;;;;;;;;;507582;28;1404;-75
2023/05/04 00:14:47;;;;;;;3.83;2.50;;;;;;;;;;510587;28;1353;-75
2023/05/04 00:15:03;;;;;;;4.82;2.60;;;;;;;;;;507884;28;1364;-74
2023/05/04 00:15:18;;;;;;;4.80;2.70;;;;;;;;;;508901;28;1144;-75
2023/05/04 00:15:33;;;;;;;3.53;2.50;;;;;;;;;;509575;28;1124;-75
2023/05/04 00:15:48;;;;;;;3.93;2.47;;;;;;;;;;508933;28;1224;-75
2023/05/04 00:16:04;;;;;;;4.30;2.70;;;;;;;;;;508584;28;999;-75
2023/05/04 00:16:19;;;;;;;4.07;2.63;;;;;;;;;;506788;28;1300;-75
2023/05/04 00:16:35;;;;;;;4.60;2.50;;;;;;;;;;508135;28;1244;-76
2023/05/04 00:16:50;;;;;;;4.45;2.42;;;;;;;;;;507593;28;1238;-71
2023/05/04 00:17:06;;;;;;;4.33;2.40;;;;;;;;;;505973;28;1405;-74
2023/05/04 00:17:21;;;;;;;4.85;2.40;;;;;;;;;;507527;28;1577;-74
2023/05/04 00:17:37;;;;;;;4.43;2.37;;;;;;;;;;507429;28;1237;-75
2023/05/04 00:17:53;;;;;;;3.42;2.33;;;;;;;;;;508190;28;1140;-75
2023/05/04 00:18:11;;;;;;;3.90;2.40;;;;;;;;;;508829;28;1419;-74
2023/05/04 00:18:26;;;;;;;3.45;2.20;;;;;;;;;;511229;28;1120;-75
2023/05/04 00:18:41;;;;;;;3.77;2.40;;;;;;;;;;511178;28;1144;-74
2023/05/04 00:18:56;;;;;;;4.10;2.60;;;;;;;;;;511425;28;1264;-76
2023/05/04 00:19:11;;;;;;;4.47;2.60;;;;;;;;;;512044;28;973;-75
2023/05/04 00:19:27;;;;;;;4.72;2.53;;;;;;;;;;510100;28;1733;-75
2023/05/04 00:19:43;;;;;;;3.77;2.43;;;;;;;;;;507651;28;1315;-75
2023/05/04 00:19:58;;;;;;;3.78;2.30;;;;;;;;;;509678;28;1084;-75
2023/05/04 00:20:14;;;;;;;4.82;2.50;;;;;;;;;;508475;28;1129;-75
2023/05/04 00:20:29;;;;;;;6.40;2.60;;;;;;;;;;507702;28;1244;-76
2023/05/04 00:20:45;;;;;;;5.30;2.50;;;;;;;;;;509455;28;1053;-74
2023/05/04 00:21:00;;;;;;;3.35;2.45;;;;;;;;;;509178;28;1309;-75
2023/05/04 00:21:15;;;;;;;3.60;2.50;;;;;;;;;;508375;28;1231;-75
2023/05/04 00:21:30;;;;;;;4.10;2.50;;;;;;;;;;508762;28;1144;-75
2023/05/04 00:21:46;;;;;;;4.40;2.53;;;;;;;;;;509967;28;990;-75
2023/05/04 00:22:01;;;;;;;4.20;2.60;;;;;;;;;;508526;28;919;-75
2023/05/04 00:22:16;;;;;;;3.80;2.60;;;;;;;;;;509332;28;1086;-75
2023/05/04 00:22:32;;;;;;;3.85;2.67;;;;;;;;;;509329;28;1191;-74
2023/05/04 00:22:47;;;;;;;5.10;2.60;;;;;;;;;;509981;28;1219;-75
2023/05/04 00:23:02;;;;;;;5.40;2.50;;;;;;;;;;510513;28;1265;-74
2023/05/04 00:23:17;;;;;;;4.23;2.47;;;;;;;;;;511676;27;1361;-74
2023/05/04 00:23:32;;;;;;;4.00;2.40;;;;;;;;;;512055;27;1111;-75
2023/05/04 00:23:50;;;;;;;4.32;2.40;;;;;;;;;;513134;27;1311;-74
2023/05/04 00:24:05;;;;;;;5.60;2.50;;;;;;;;;;514022;28;1417;-74
2023/05/04 00:25:02;;;;;;;5.93;2.60;;;;;;;;;;508902;28;1328;-74
2023/05/04 00:25:16;;;;;;;4.75;2.60;;;;;;;;;;511718;28;1307;-76
2023/05/04 00:25:32;;;;;;;5.93;2.60;;;;;;;;;;512228;28;922;-75
2023/05/04 00:25:47;;;;;;;5.43;2.57;;;;;;;;;;509432;28;1282;-75
2023/05/04 00:26:02;;;;;;;4.23;2.70;;;;;;;;;;511601;28;1098;-74
2023/05/04 00:26:17;;;;;;;4.18;2.60;;;;;;;;;;514183;27;1084;-74
2023/05/04 00:26:33;;;;;;;4.47;2.40;;;;;;;;;;511928;28;1343;-74
2023/05/04 00:26:48;;;;;;;4.37;2.40;;;;;;;;;;512158;28;1089;-74
2023/05/04 00:27:03;;;;;;;3.90;2.33;;;;;;;;;;512223;28;1151;-75
2023/05/04 00:27:18;;;;;;;4.60;2.40;;;;;;;;;;512869;28;1279;-74
2023/05/04 00:27:34;;;;;;;4.38;2.50;;;;;;;;;;512624;28;1076;-75
2023/05/04 00:27:49;;;;;;;3.63;2.60;;;;;;;;;;514094;27;1008;-75
2023/05/04 00:28:04;;;;;;;3.93;2.70;;;;;;;;;;513159;27;1211;-75
2023/05/04 00:28:19;;;;;;;3.63;2.63;;;;;;;;;;513872;27;1380;-74
2023/05/04 00:28:35;;;;;;;4.53;2.50;;;;;;;;;;512060;28;1496;-73
2023/05/04 00:28:50;;;;;;;4.63;2.43;;;;;;;;;;511391;28;1286;-74
2023/05/04 00:29:05;;;;;;;3.90;2.50;;;;;;;;;;509968;28;1167;-74
2023/05/04 00:29:20;;;;;;;3.93;2.50;;;;;;;;;;508237;28;1201;-75
2023/05/04 00:29:36;;;;;;;3.28;2.40;;;;;;;;;;506816;28;1360;-75
2023/05/04 00:29:51;;;;;;;3.27;2.40;;;;;;;;;;508505;28;1329;-75
2023/05/04 00:30:07;;;;;;;3.63;2.50;;;;;;;;;;506839;28;956;-75
2023/05/04 00:30:22;;;;;;;3.67;2.42;;;;;;;;;;508589;28;1062;-74
2023/05/04 00:30:38;;;;;;;3.83;2.50;;;;;;;;;;510155;28;1264;-75
2023/05/04 00:30:53;;;;;;;3.50;2.33;;;;;;;;;;510223;28;1491;-74
2023/05/04 00:31:08;;;;;;;3.40;2.30;;;;;;;;;;508708;28;1191;-74
2023/05/04 00:31:23;;;;;;;3.63;2.40;;;;;;;;;;509550;28;1160;-74
2023/05/04 00:31:38;;;;;;;4.33;2.40;;;;;;;;;;507423;28;1244;-74
2023/05/04 00:31:54;;;;;;;4.83;2.43;;;;;;;;;;508541;28;1373;-74
2023/05/04 00:32:09;;;;;;;4.87;2.57;;;;;;;;;;505920;28;1471;-75
2023/05/04 00:32:26;;;;;;;4.55;2.60;;;;;;;;;;507247;28;1283;-74
2023/05/04 00:32:41;;;;;;;4.05;2.35;;;;;;;;;;507701;28;1311;-75
2023/05/04 00:32:56;;;;;;;4.27;2.57;;;;;;;;;;507669;28;1314;-74
2023/05/04 00:33:11;;;;;;;4.78;2.60;;;;;;;;;;508169;28;1203;-75
2023/05/04 00:33:26;;;;;;;4.20;2.33;;;;;;;;;;508787;28;1921;-74
2023/05/04 00:33:42;;;;;;;3.60;2.40;;;;;;;;;;508787;28;1410;-75
2023/05/04 00:33:57;;;;;;;4.77;2.57;;;;;;;;;;508684;28;1200;-74
2023/05/04 00:34:12;;;;;;;6.37;2.70;;;;;;;;;;508703;28;1346;-75
2023/05/04 00:34:28;;;;;;;5.13;2.70;;;;;;;;;;508000;28;1079;-75
2023/05/04 00:34:43;;;;;;;3.47;2.60;;;;;;;;;;510322;28;1157;-75
2023/05/04 00:34:58;;;;;;;5.07;2.67;;;;;;;;;;507967;28;1196;-75
2023/05/04 00:35:16;;;;;;;5.33;2.70;;;;;;;;;;508658;28;1188;-74
2023/05/04 00:35:31;;;;;;;4.72;2.70;;;;;;;;;;507251;28;1069;-74
2023/05/04 00:35:46;;;;;;;4.68;2.65;;;;;;;;;;509842;28;1347;-74
2023/05/04 00:36:05;;;;;;;3.37;2.40;;;;;;;;;;509986;28;1472;-74
2023/05/04 00:36:20;;;;;;;3.50;2.40;;;;;;;;;;511166;28;938;-74
2023/05/04 00:36:35;;;;;;;3.23;2.40;;;;;;;;;;509246;28;1278;-74
2023/05/04 00:36:51;;;;;;;2.43;2.23;;;;;;;;;;508772;28;1278;-74
2023/05/04 00:37:06;;;;;;;2.40;2.20;;;;;;;;;;509312;28;1227;-74
2023/05/04 00:37:22;;;;;;;2.45;2.20;;;;;;;;;;509600;28;1204;-74
2023/05/04 00:37:37;;;;;;;3.23;2.20;;;;;;;;;;510380;28;1124;-74
2023/05/04 00:38:33;;;;;;;4.00;2.45;;;;;;;;;;511369;28;1120;-74
2023/05/04 00:38:49;;;;;;;4.38;2.65;;;;;;;;;;510073;28;1304;-75
2023/05/04 00:39:04;;;;;;;3.78;2.70;;;;;;;;;;511686;28;1590;-75
2023/05/04 00:39:19;;;;;;;4.07;2.60;;;;;;;;;;513111;27;966;-76
2023/05/04 00:39:34;;;;;;;4.10;2.60;;;;;;;;;;513216;27;1195;-74
2023/05/04 00:39:49;;;;;;;4.10;2.73;;;;;;;;;;514411;27;1124;-75
2023/05/04 00:40:05;;;;;;;4.23;2.90;;;;;;;;;;511998;28;1419;-76
2023/05/04 00:40:20;;;;;;;4.38;2.70;;;;;;;;;;511159;28;1161;-75
2023/05/04 00:40:36;;;;;;;4.23;2.53;;;;;;;;;;511440;28;912;-75
2023/05/04 00:40:51;;;;;;;4.10;2.60;;;;;;;;;;511886;28;1158;-75
2023/05/04 00:41:06;;;;;;;4.30;2.55;;;;;;;;;;514546;28;933;-74
2023/05/04 00:41:21;;;;;;;4.53;2.70;;;;;;;;;;512840;28;1218;-74
2023/05/04 00:41:36;;;;;;;5.17;2.80;;;;;;;;;;511485;28;1362;-75
2023/05/04 00:41:54;;;;;;;4.87;2.70;;;;;;;;;;512626;28;926;-74
2023/05/04 00:42:10;;;;;;;4.05;2.70;;;;;;;;;;513022;28;1617;-74
2023/05/04 00:42:25;;;;;;;4.35;2.60;;;;;;;;;;510389;28;1246;-74
2023/05/04 00:42:40;;;;;;;4.13;2.73;;;;;;;;;;508098;28;1228;-74
2023/05/04 00:42:55;;;;;;;3.93;2.77;;;;;;;;;;509438;28;1096;-73
2023/05/04 00:43:11;;;;;;;4.60;2.67;;;;;;;;;;508377;28;1450;-75
2023/05/04 00:43:26;;;;;;;5.40;2.55;;;;;;;;;;509941;28;1203;-74
2023/05/04 00:43:41;;;;;;;4.80;2.40;;;;;;;;;;508576;28;1183;-75
2023/05/04 00:43:58;;;;;;;3.53;2.50;;;;;;;;;;509360;28;1229;-74
2023/05/04 00:44:16;;;;;;;4.20;2.53;;;;;;;;;;509207;28;1398;-74
2023/05/04 00:44:33;;;;;;;5.28;2.70;;;;;;;;;;511088;28;1136;-74
2023/05/04 00:44:48;;;;;;;4.55;2.90;;;;;;;;;;511754;28;1083;-74
2023/05/04 00:45:03;;;;;;;4.70;2.90;;;;;;;;;;509293;28;1292;-74
2023/05/04 00:45:19;;;;;;;4.93;2.67;;;;;;;;;;507916;28;1412;-75
2023/05/04 00:45:34;;;;;;;5.33;2.60;;;;;;;;;;508899;28;1045;-74
2023/05/04 00:45:50;;;;;;;4.77;2.63;;;;;;;;;;508815;28;1574;-74
2023/05/04 00:46:05;;;;;;;5.90;2.70;;;;;;;;;;508178;28;1386;-75
2023/05/04 00:46:21;;;;;;;5.40;2.80;;;;;;;;;;507798;28;975;-75
2023/05/04 00:46:36;;;;;;;3.42;2.70;;;;;;;;;;504893;28;1408;-74
2023/05/04 00:46:52;;;;;;;3.93;2.70;;;;;;;;;;505732;28;993;-74
2023/05/04 00:47:07;;;;;;;4.70;2.70;;;;;;;;;;505269;28;1250;-74
2023/05/04 00:47:23;;;;;;;4.20;2.60;;;;;;;;;;507382;28;1748;-74
2023/05/04 00:47:38;;;;;;;3.13;2.50;;;;;;;;;;507660;28;1264;-73
2023/05/04 00:47:54;;;;;;;2.83;2.40;;;;;;;;;;507342;28;1370;-74
2023/05/04 00:48:09;;;;;;;2.50;2.30;;;;;;;;;;509698;28;1216;-74
2023/05/04 00:48:24;;;;;;;2.77;2.30;;;;;;;;;;508993;28;1434;-74
2023/05/04 00:48:40;;;;;;;3.10;2.47;;;;;;;;;;509407;28;1228;-74
2023/05/04 00:48:55;;;;;;;3.13;2.50;;;;;;;;;;506580;28;1340;-74
2023/05/04 00:49:13;;;;;;;3.85;2.55;;;;;;;;;;508484;28;951;-75
2023/05/04 00:49:28;;;;;;;3.42;2.47;;;;;;;;;;509495;28;1507;-74
2023/05/04 00:49:43;;;;;;;4.17;2.40;;;;;;;;;;511270;28;1709;-74
2023/05/04 00:49:59;;;;;;;6.15;2.47;;;;;;;;;;510693;28;1093;-74
2023/05/04 00:50:14;;;;;;;5.97;2.70;;;;;;;;;;510492;28;1355;-74
2023/05/04 00:50:29;;;;;;;5.00;2.77;;;;;;;;;;507690;28;1151;-74
2023/05/04 00:50:44;;;;;;;5.17;2.57;;;;;;;;;;510053;28;910;-74
2023/05/04 00:51:00;;;;;;;4.63;2.65;;;;;;;;;;510684;28;1382;-73
2023/05/04 00:51:16;;;;;;;4.37;2.70;;;;;;;;;;509170;28;1382;-74
2023/05/04 00:51:31;;;;;;;4.38;2.50;;;;;;;;;;508659;28;1397;-75
2023/05/04 00:51:47;;;;;;;3.30;2.40;;;;;;;;;;507777;28;1178;-75
2023/05/04 00:52:03;;;;;;;3.13;2.40;;;;;;;;;;509368;28;1014;-74
2023/05/04 00:52:19;;;;;;;3.97;2.50;;;;;;;;;;509203;28;998;-75
2023/05/04 00:52:35;;;;;;;4.63;2.58;;;;;;;;;;507242;28;1396;-75
2023/05/04 00:52:51;;;;;;;4.32;2.80;;;;;;;;;;508321;28;1103;-75
2023/05/04 00:53:08;;;;;;;3.72;2.80;;;;;;;;;;507788;28;1162;-75
2023/05/04 00:53:23;;;;;;;2.83;2.45;;;;;;;;;;508700;28;1915;-76
2023/05/04 00:53:39;;;;;;;3.05;2.30;;;;;;;;;;509551;28;1376;-74
2023/05/04 00:53:54;;;;;;;3.87;2.50;;;;;;;;;;509753;28;1381;-74
2023/05/04 00:54:10;;;;;;;4.28;2.60;;;;;;;;;;510651;28;1254;-75
2023/05/04 00:54:26;;;;;;;3.50;2.65;;;;;;;;;;510394;28;1076;-74
2023/05/04 00:54:43;;;;;;;3.22;2.53;;;;;;;;;;509932;28;1232;-75
2023/05/04 00:54:59;;;;;;;3.70;2.40;;;;;;;;;;507316;28;1552;-74
2023/05/04 00:55:15;;;;;;;3.92;2.45;;;;;;;;;;507773;28;1270;-74
2023/05/04 00:55:33;;;;;;;3.70;2.50;;;;;;;;;;507455;28;1219;-75
2023/05/04 00:55:48;;;;;;;3.42;2.28;;;;;;;;;;507579;28;1212;-75
2023/05/04 00:56:04;;;;;;;3.67;2.40;;;;;;;;;;508038;28;1457;-74
2023/05/04 00:56:23;;;;;;;3.53;2.60;;;;;;;;;;507518;28;1214;-74
2023/05/04 00:56:59;;;;;;;2.63;2.33;;;;;;;;;;507449;28;1305;-74
2023/05/04 00:57:14;;;;;;;3.25;2.50;;;;;;;;;;506900;28;1570;-75
2023/05/04 00:57:29;;;;;;;3.13;2.40;;;;;;;;;;507553;28;1343;-75
2023/05/04 00:57:45;;;;;;;4.00;2.50;;;;;;;;;;507227;28;1169;-75
2023/05/04 00:58:00;;;;;;;5.00;2.60;;;;;;;;;;506929;28;1249;-75
2023/05/04 00:58:15;;;;;;;5.10;2.60;;;;;;;;;;505528;28;1432;-75
2023/05/04 00:58:31;;;;;;;5.43;2.78;;;;;;;;;;505838;28;1338;-75
2023/05/04 00:58:46;;;;;;;4.45;2.67;;;;;;;;;;506836;28;1345;-76
2023/05/04 00:59:02;;;;;;;3.27;2.57;;;;;;;;;;504523;28;1101;-74
2023/05/04 00:59:19;;;;;;;4.07;2.70;;;;;;;;;;504921;28;1396;-74
2023/05/04 00:59:35;;;;;;;3.97;2.67;;;;;;;;;;505267;28;1136;-73
2023/05/04 00:59:51;;;;;;;5.13;2.73;;;;;;;;;;506019;28;1227;-75
2023/05/04 01:00:07;;;;;;;5.50;2.95;;;;;;;;;;507066;28;1309;-74
2023/05/04 01:00:22;;;;;;;4.32;2.80;;;;;;;;;;509242;28;1238;-74
2023/05/04 01:00:37;;;;;;;4.00;2.60;;;;;;;;;;509904;28;1433;-74
2023/05/04 01:00:53;;;;;;;4.73;2.70;;;;;;;;;;510201;28;1022;-74
2023/05/04 01:01:08;;;;;;;4.63;2.70;;;;;;;;;;510205;28;1195;-74
2023/05/04 01:01:23;;;;;;;4.53;2.70;;;;;;;;;;506256;28;1228;-73
2023/05/04 01:01:39;;;;;;;4.40;2.80;;;;;;;;;;504309;28;1406;-73
2023/05/04 01:01:54;;;;;;;4.18;2.70;;;;;;;;;;506257;28;1001;-75
2023/05/04 01:02:09;;;;;;;4.60;2.83;;;;;;;;;;506320;28;1180;-74
2023/05/04 01:02:25;;;;;;;4.97;3.00;;;;;;;;;;509391;28;1378;-75
2023/05/04 01:02:40;;;;;;;4.47;2.70;;;;;;;;;;507245;28;1331;-73
2023/05/04 01:02:56;;;;;;;3.35;2.50;;;;;;;;;;509226;28;1198;-74
2023/05/04 01:03:11;;;;;;;3.47;2.42;;;;;;;;;;508910;28;1294;-74
2023/05/04 01:03:27;;;;;;;4.20;2.40;;;;;;;;;;505751;28;1164;-74
2023/05/04 01:04:02;;;;;;;3.70;2.30;;;;;;;;;;504662;28;1256;-74
2023/05/04 01:04:17;;;;;;;3.88;2.60;;;;;;;;;;505814;28;1572;-74
2023/05/04 01:04:33;;;;;;;4.73;2.70;;;;;;;;;;507982;28;1276;-74
2023/05/04 01:04:48;;;;;;;5.10;2.70;;;;;;;;;;506332;28;1356;-73
2023/05/04 01:05:24;;;;;;;4.28;2.63;;;;;;;;;;506805;28;1406;-74
2023/05/04 01:06:20;;;;;;;4.43;2.70;;;;;;;;;;509205;28;1956;-74
2023/05/04 01:06:40;;;;;;;5.03;2.83;;;;;;;;;;509575;28;1369;-74
2023/05/04 01:07:16;;;;;;;5.55;2.70;;;;;;;;;;513831;28;1057;-74
2023/05/04 01:07:31;;;;;;;5.18;2.70;;;;;;;;;;506647;28;1401;-74
2023/05/04 01:08:05;;;;;;;3.80;2.70;;;;;;;;;;506772;28;1252;-75
2023/05/04 01:08:25;;;;;;;4.30;2.60;;;;;;;;;;507453;28;1152;-74
2023/05/04 01:08:45;;;;;;;4.80;2.60;;;;;;;;;;510546;28;2037;-74
2023/05/04 01:09:06;;;;;;;4.35;2.63;;;;;;;;;;509725;28;1292;-73
2023/05/04 01:09:40;;;;;;;4.88;2.75;;;;;;;;;;509101;28;1322;-73
2023/05/04 01:09:55;;;;;;;3.85;2.58;;;;;;;;;;510846;28;1092;-74
2023/05/04 01:10:36;;;;;;;3.90;2.70;;;;;;;;;;508271;28;1306;-75
2023/05/04 01:10:56;;;;;;;3.90;2.70;;;;;;;;;;509089;28;1824;-74
2023/05/04 01:11:19;;;;;;;5.05;2.80;;;;;;;;;;507913;28;1298;-74
2023/05/04 01:11:42;;;;;;;5.00;2.80;;;;;;;;;;509947;28;1184;-74
2023/05/04 01:12:01;;;;;;;3.65;2.47;;;;;;;;;;509487;28;994;-74
2023/05/04 01:12:19;;;;;;;3.63;2.58;;;;;;;;;;510329;28;1365;-75
2023/05/04 01:12:39;;;;;;;5.00;2.80;;;;;;;;;;507447;28;1133;-74
2023/05/04 01:13:04;;;;;;;3.65;2.45;;;;;;;;;;507963;28;1270;-74
2023/05/04 01:13:20;;;;;;;4.20;2.55;;;;;;;;;;508141;28;2296;-74
2023/05/04 01:13:36;;;;;;;4.68;2.88;;;;;;;;;;507382;28;1500;-73
2023/05/04 01:13:55;;;;;;;3.75;2.78;;;;;;;;;;507043;28;1192;-74
2023/05/04 01:14:10;;;;;;;3.10;2.50;;;;;;;;;;508514;28;1137;-74
2023/05/04 01:14:26;;;;;;;3.85;2.53;;;;;;;;;;507357;28;990;-74
2023/05/04 01:14:42;;;;;;;4.53;2.60;;;;;;;;;;508420;28;1031;-73
2023/05/04 01:14:57;;;;;;;4.80;2.78;;;;;;;;;;507825;28;1334;-75
2023/05/04 01:15:13;;;;;;;4.10;2.70;;;;;;;;;;508489;28;1290;-74
2023/05/04 01:15:29;;;;;;;3.97;2.60;;;;;;;;;;507197;28;1325;-75
2023/05/04 01:15:45;;;;;;;4.07;2.63;;;;;;;;;;507116;28;1203;-75
2023/05/04 01:16:01;;;;;;;3.60;2.60;;;;;;;;;;506038;28;1372;-74
2023/05/04 01:16:16;;;;;;;5.05;2.67;;;;;;;;;;507619;28;1392;-74
2023/05/04 01:16:35;;;;;;;5.27;2.87;;;;;;;;;;508957;28;1005;-75
2023/05/04 01:16:54;;;;;;;3.97;2.67;;;;;;;;;;507989;28;1029;-75
2023/05/04 01:17:10;;;;;;;4.55;2.70;;;;;;;;;;509184;28;1048;-75
2023/05/04 01:17:25;;;;;;;4.13;2.50;;;;;;;;;;507559;28;1105;-74
2023/05/04 01:17:40;;;;;;;3.53;2.40;;;;;;;;;;508262;28;923;-75
2023/05/04 01:17:56;;;;;;;3.47;2.45;;;;;;;;;;508117;28;1105;-74
2023/05/04 01:18:11;;;;;;;3.87;2.53;;;;;;;;;;506534;28;1229;-74
2023/05/04 01:18:26;;;;;;;4.27;2.60;;;;;;;;;;506360;28;1215;-75
2023/05/04 01:18:41;;;;;;;4.40;2.60;;;;;;;;;;507107;28;1120;-74
2023/05/04 01:18:56;;;;;;;3.83;2.60;;;;;;;;;;506996;28;1309;-74
2023/05/04 01:19:12;;;;;;;4.40;2.70;;;;;;;;;;508767;28;1024;-75
2023/05/04 01:19:28;;;;;;;4.60;2.70;;;;;;;;;;511030;28;1253;-75
2023/05/04 01:19:43;;;;;;;3.85;2.70;;;;;;;;;;510931;28;1060;-75
2023/05/04 01:19:58;;;;;;;3.37;2.77;;;;;;;;;;510365;28;981;-75
2023/05/04 01:20:13;;;;;;;3.53;2.63;;;;;;;;;;512194;28;1372;-75
2023/05/04 01:20:29;;;;;;;3.53;2.53;;;;;;;;;;513150;28;1139;-74
2023/05/04 01:20:44;;;;;;;3.57;2.47;;;;;;;;;;512735;28;1119;-74
2023/05/04 01:20:59;;;;;;;2.90;2.30;;;;;;;;;;515167;27;1150;-74
2023/05/04 01:21:14;;;;;;;2.90;2.30;;;;;;;;;;514871;27;1468;-75
2023/05/04 01:21:37;;;;;;;4.00;2.60;;;;;;;;;;513364;27;1212;-74
2023/05/04 01:21:52;;;;;;;3.45;2.50;;;;;;;;;;510943;28;1502;-74
2023/05/04 01:22:07;;;;;;;3.03;2.40;;;;;;;;;;511943;28;1029;-74
2023/05/04 01:22:23;;;;;;;3.28;2.50;;;;;;;;;;513254;28;1298;-73
2023/05/04 01:22:38;;;;;;;3.70;2.60;;;;;;;;;;513637;28;1258;-73
2023/05/04 01:22:53;;;;;;;4.60;2.67;;;;;;;;;;513024;28;1315;-75
2023/05/04 01:23:09;;;;;;;4.27;2.60;;;;;;;;;;511088;28;1278;-74
2023/05/04 01:23:26;;;;;;;3.13;2.47;;;;;;;;;;512693;28;1065;-74
2023/05/04 01:23:42;;;;;;;2.80;2.42;;;;;;;;;;511667;27;1105;-74
2023/05/04 01:23:57;;;;;;;3.63;2.43;;;;;;;;;;514514;28;1147;-75
2023/05/04 01:24:13;;;;;;;4.53;2.63;;;;;;;;;;512815;27;1198;-74
2023/05/04 01:24:29;;;;;;;3.77;2.67;;;;;;;;;;511734;28;926;-74
2023/05/04 01:24:46;;;;;;;3.38;2.67;;;;;;;;;;511467;28;1202;-74
2023/05/04 01:25:04;;;;;;;3.58;2.55;;;;;;;;;;511054;28;958;-74
2023/05/04 01:25:20;;;;;;;4.03;2.40;;;;;;;;;;511299;28;981;-74
2023/05/04 01:25:40;;;;;;;4.23;2.40;;;;;;;;;;509365;28;1201;-74
2023/05/04 01:26:07;;;;;;;3.40;2.20;;;;;;;;;;509560;28;1451;-74
2023/05/04 01:26:24;;;;;;;3.70;2.40;;;;;;;;;;508265;28;1425;-74
2023/05/04 01:26:41;;;;;;;3.30;2.40;;;;;;;;;;510227;28;962;-74
2023/05/04 01:27:07;;;;;;;3.03;2.37;;;;;;;;;;510077;28;1111;-74
2023/05/04 01:27:30;;;;;;;4.50;2.60;;;;;;;;;;511643;28;1352;-73
2023/05/04 01:27:47;;;;;;;4.30;2.55;;;;;;;;;;510202;28;1029;-73
2023/05/04 01:28:17;;;;;;;4.32;2.60;;;;;;;;;;512024;28;1184;-74
2023/05/04 01:28:37;;;;;;;4.72;2.80;;;;;;;;;;511675;28;971;-74
2023/05/04 01:28:58;;;;;;;4.25;2.65;;;;;;;;;;512425;28;1179;-73
2023/05/04 01:29:18;;;;;;;4.18;2.70;;;;;;;;;;511793;28;1222;-73
2023/05/04 01:29:59;;;;;;;3.83;2.63;;;;;;;;;;508733;28;1273;-74
2023/05/04 01:30:50;;;;;;;3.83;2.60;;;;;;;;;;509099;28;1424;-73
2023/05/04 01:31:06;;;;;;;3.85;2.80;;;;;;;;;;504168;28;1430;-74
2023/05/04 01:31:23;;;;;;;4.63;2.80;;;;;;;;;;503714;28;1424;-73
2023/05/04 01:31:39;;;;;;;4.13;2.60;;;;;;;;;;503116;28;1285;-74
2023/05/04 01:31:54;;;;;;;3.90;2.63;;;;;;;;;;503062;28;1128;-73
2023/05/04 01:32:12;;;;;;;5.15;2.80;;;;;;;;;;503620;28;1325;-74
2023/05/04 01:32:30;;;;;;;4.72;2.80;;;;;;;;;;503416;28;1019;-77
2023/05/04 01:32:48;;;;;;;4.57;2.70;;;;;;;;;;500590;28;1308;-73
2023/05/04 01:33:03;;;;;;;3.67;2.60;;;;;;;;;;501313;28;1456;-75
2023/05/04 01:33:19;;;;;;;3.03;2.50;;;;;;;;;;504382;28;1979;-74
2023/05/04 01:33:36;;;;;;;3.45;2.58;;;;;;;;;;504154;28;1462;-75
2023/05/04 01:33:52;;;;;;;3.55;2.60;;;;;;;;;;502682;28;1509;-73
2023/05/04 01:34:07;;;;;;;3.50;2.60;;;;;;;;;;504904;28;1538;-73
2023/05/04 01:34:22;;;;;;;4.03;2.67;;;;;;;;;;505568;28;927;-74
2023/05/04 01:34:39;;;;;;;3.93;2.67;;;;;;;;;;502040;28;1231;-74
2023/05/04 01:34:57;;;;;;;3.83;2.70;;;;;;;;;;502922;28;1422;-73
2023/05/04 01:35:14;;;;;;;4.25;2.92;;;;;;;;;;503346;28;1394;-74
2023/05/04 01:35:30;;;;;;;4.63;2.90;;;;;;;;;;502414;28;1401;-74
2023/05/04 01:35:45;;;;;;;4.67;2.87;;;;;;;;;;503870;28;1230;-73
2023/05/04 01:36:00;;;;;;;3.58;2.83;;;;;;;;;;500162;28;1328;-74
2023/05/04 01:36:16;;;;;;;4.07;2.90;;;;;;;;;;500436;28;1205;-74
2023/05/04 01:36:31;;;;;;;4.57;3.08;;;;;;;;;;498371;28;1353;-73
2023/05/04 01:36:47;;;;;;;4.87;3.20;;;;;;;;;;498710;28;1078;-74
2023/05/04 01:37:02;;;;;;;4.10;2.92;;;;;;;;;;499442;28;1220;-74
2023/05/04 01:37:17;;;;;;;3.43;2.70;;;;;;;;;;498178;28;1223;-75
2023/05/04 01:37:33;;;;;;;4.50;2.87;;;;;;;;;;499978;28;947;-75
2023/05/04 01:37:48;;;;;;;4.57;2.83;;;;;;;;;;502760;28;1328;-74
2023/05/04 01:38:03;;;;;;;4.10;2.90;;;;;;;;;;502140;28;1456;-73
2023/05/04 01:38:19;;;;;;;3.50;2.70;;;;;;;;;;500950;28;1186;-74
2023/05/04 01:38:34;;;;;;;3.00;2.50;;;;;;;;;;500112;28;1288;-73
2023/05/04 01:38:52;;;;;;;4.03;2.80;;;;;;;;;;499043;28;1248;-74
2023/05/04 01:39:07;;;;;;;4.75;2.88;;;;;;;;;;498201;28;1260;-74
2023/05/04 01:39:22;;;;;;;4.13;2.90;;;;;;;;;;499507;28;1020;-74
2023/05/04 01:39:38;;;;;;;4.03;2.77;;;;;;;;;;499755;28;1130;-74
2023/05/04 01:39:53;;;;;;;3.90;2.65;;;;;;;;;;499273;28;1479;-74
2023/05/04 01:40:08;;;;;;;4.50;2.97;;;;;;;;;;498925;28;1618;-74
2023/05/04 01:40:24;;;;;;;4.10;2.90;;;;;;;;;;499974;28;2107;-74
2023/05/04 01:40:39;;;;;;;3.33;2.60;;;;;;;;;;499331;28;1327;-74
2023/05/04 01:40:54;;;;;;;3.37;2.60;;;;;;;;;;501091;28;1189;-74
2023/05/04 01:41:09;;;;;;;3.50;2.77;;;;;;;;;;500548;28;1386;-74
2023/05/04 01:41:25;;;;;;;3.60;2.70;;;;;;;;;;501178;28;1327;-74
2023/05/04 01:41:41;;;;;;;3.95;2.70;;;;;;;;;;501206;28;1448;-74
2023/05/04 01:41:56;;;;;;;4.20;2.80;;;;;;;;;;501275;28;1631;-74
2023/05/04 01:42:11;;;;;;;3.77;2.70;;;;;;;;;;500770;28;1225;-74
2023/05/04 01:42:26;;;;;;;3.70;2.70;;;;;;;;;;503457;28;1215;-74
2023/05/04 01:42:41;;;;;;;4.43;2.80;;;;;;;;;;501249;28;1193;-74
2023/05/04 01:43:38;;;;;;;4.15;2.90;;;;;;;;;;501694;28;1355;-74
2023/05/04 01:44:13;;;;;;;4.60;2.70;;;;;;;;;;501329;28;1368;-74
2023/05/04 01:44:28;;;;;;;4.28;2.70;;;;;;;;;;504616;28;1587;-74
2023/05/04 01:44:43;;;;;;;5.20;2.80;;;;;;;;;;501377;28;1221;-73
2023/05/04 01:44:58;;;;;;;4.10;2.90;;;;;;;;;;504270;28;1244;-73
2023/05/04 01:45:14;;;;;;;3.20;2.80;;;;;;;;;;502884;28;1082;-74
2023/05/04 01:46:07;;;;;;;3.70;2.60;;;;;;;;;;500752;28;932;-74